createdAt,value
2014-09-09T00:06:35.634Z,101686
2014-09-09T00:13:36.179Z,101678
2014-09-09T00:22:36.836Z,101664
2014-09-09T00:32:37.542Z,101661
2014-09-09T00:41:38.202Z,101649
2014-09-09T00:50:38.843Z,101637
2014-09-09T00:58:39.452Z,101631
2014-09-09T01:07:40.111Z,101640
2014-09-09T01:15:40.703Z,101637
2014-09-09T01:23:41.313Z,101649
2014-09-09T01:32:41.971Z,101643
2014-09-09T01:39:42.515Z,101634
2014-09-09T01:48:43.174Z,101637
2014-09-09T01:58:43.896Z,101616
2014-09-09T02:06:44.503Z,101613
2014-09-09T02:15:45.147Z,101605
2014-09-09T02:24:45.805Z,101588
2014-09-09T02:31:46.351Z,101579
2014-09-09T02:41:47.056Z,101585
2014-09-09T02:49:47.666Z,101584
2014-09-09T02:57:48.260Z,101587
2014-09-09T03:05:48.883Z,101590
2014-09-09T03:12:49.445Z,101596
2014-09-09T03:19:50.004Z,101590
2014-09-09T03:27:50.615Z,101590
2014-09-09T03:35:51.222Z,101584
2014-09-09T03:45:51.913Z,101581
2014-09-09T03:53:52.508Z,101567
2014-09-09T04:01:53.116Z,101573
2014-09-09T04:10:53.774Z,101581
2014-09-09T04:18:54.368Z,101584
2014-09-09T04:26:54.961Z,101584
2014-09-09T04:36:55.668Z,101587
2014-09-09T04:44:56.514Z,101593
2014-09-09T15:41:44.795Z,101677
2014-09-09T15:49:45.388Z,101677
2014-09-09T15:58:46.048Z,101662
2014-09-09T16:08:46.753Z,101682
2014-09-09T16:17:47.427Z,101696
2014-09-09T16:25:48.021Z,101696
2014-09-09T16:35:48.727Z,101696
2014-09-09T16:44:49.369Z,101684
2014-09-09T16:51:49.915Z,101693
2014-09-09T17:14:21.380Z,101684
2014-09-09T17:20:21.875Z,101682
2014-09-09T17:28:22.469Z,101687
2014-09-09T17:36:23.078Z,101679
2014-09-09T17:46:23.768Z,101701
2014-09-09T17:56:24.477Z,101692
